Time;durP1;ratioP1;P1;durP2;ratioP2;P2;SDS_P1;SDS_P2;PMS_P1;PMS_P2;Temp;Humidity;BMP_temperature;BMP_pressure;BME280_temperature;BME280_humidity;BME280_pressure;Samples;Min_cycle;Max_cycle;Signal;HPM_P1;HPM_P2
2022/09/23 00:00:31;;;;;;;13.82;8.15;;;8.00;1.00;;;;;;5037117;28;20241;-82
2022/09/23 00:03:00;;;;;;;13.60;8.55;;;7.90;1.00;;;;;;5035794;28;20241;-82
2022/09/23 00:05:28;;;;;;;13.65;8.40;;;7.90;1.00;;;;;;5041784;28;20262;-82
2022/09/23 00:07:55;;;;;;;12.85;7.95;;;8.00;1.00;;;;;;5035279;28;20234;-81
2022/09/23 00:10:25;;;;;;;12.85;8.20;;;8.00;1.00;;;;;;5035462;28;20241;-82
2022/09/23 00:12:53;;;;;;;13.38;7.88;;;8.00;1.00;;;;;;5032266;28;20984;-80
2022/09/23 00:15:21;;;;;;;13.25;8.75;;;8.00;1.00;;;;;;5032819;28;20244;-82
2022/09/23 00:17:48;;;;;;;14.43;9.20;;;8.00;1.00;;;;;;5031949;28;20238;-82
2022/09/23 00:20:16;;;;;;;13.90;8.55;;;8.00;1.00;;;;;;5033971;28;20320;-81
2022/09/23 00:22:43;;;;;;;13.80;8.88;;;8.00;1.00;;;;;;5032300;28;20222;-81
2022/09/23 00:25:11;;;;;;;15.45;9.00;;;8.00;1.00;;;;;;5031897;28;20229;-81
2022/09/23 00:27:42;;;;;;;14.02;8.48;;;8.00;1.00;;;;;;5029357;28;20261;-81
2022/09/23 00:30:10;;;;;;;12.95;8.50;;;8.00;1.00;;;;;;5032158;28;20244;-82
2022/09/23 00:32:39;;;;;;;15.63;8.50;;;8.00;1.00;;;;;;5032357;28;20252;-80
2022/09/23 00:35:10;;;;;;;12.50;7.70;;;8.10;1.00;;;;;;5027728;28;20254;-81
2022/09/23 00:37:37;;;;;;;14.98;9.25;;;8.10;1.00;;;;;;5026806;28;20737;-82
2022/09/23 00:40:07;;;;;;;14.20;8.55;;;8.10;1.00;;;;;;5031044;28;21302;-82
2022/09/23 00:42:35;;;;;;;17.70;8.57;;;8.10;1.00;;;;;;5036502;28;20280;-82
2022/09/23 00:45:06;;;;;;;13.48;8.32;;;8.00;1.00;;;;;;5033069;28;20331;-83
2022/09/23 00:47:37;;;;;;;13.85;8.82;;;8.00;1.00;;;;;;5034055;28;20709;-81
2022/09/23 00:50:09;;;;;;;15.45;8.73;;;7.90;1.00;;;;;;5033010;28;20242;-81
2022/09/23 00:52:37;;;;;;;12.40;7.97;;;7.90;1.00;;;;;;5044266;28;20241;-82
2022/09/23 00:55:08;;;;;;;13.43;9.07;;;7.90;1.00;;;;;;5055333;28;20300;-82
2022/09/23 00:57:37;;;;;;;13.90;8.13;;;7.90;1.00;;;;;;5057454;28;20244;-82
2022/09/23 01:00:07;;;;;;;12.52;8.43;;;7.90;1.00;;;;;;5047751;28;20295;-81
2022/09/23 01:02:36;;;;;;;13.00;8.20;;;7.90;1.00;;;;;;5049341;28;20241;-82
2022/09/23 01:05:04;;;;;;;12.63;7.38;;;7.90;1.00;;;;;;5049406;28;20238;-81
2022/09/23 01:07:33;;;;;;;13.88;7.72;;;7.90;1.00;;;;;;5050750;28;20244;-81
2022/09/23 01:10:02;;;;;;;12.15;8.55;;;7.90;1.00;;;;;;5049279;28;20237;-84
2022/09/23 01:12:53;;;;;;;13.10;8.10;;;7.90;1.00;;;;;;5050992;28;20225;-82
2022/09/23 01:15:28;;;;;;;14.23;8.30;;;7.80;1.00;;;;;;5049510;28;20705;-81
2022/09/23 01:18:03;;;;;;;11.90;7.90;;;7.80;1.00;;;;;;5051269;28;20261;-83
2022/09/23 01:21:00;;;;;;;10.65;7.60;;;7.80;1.00;;;;;;5047813;28;20232;-83
2022/09/23 01:24:11;;;;;;;15.38;8.80;;;7.80;1.00;;;;;;5032319;28;20284;-81
2022/09/23 01:26:55;;;;;;;14.85;8.13;;;7.80;1.00;;;;;;4996022;28;21136;-80
2022/09/23 01:29:59;;;;;;;14.40;8.13;;;7.70;1.00;;;;;;5052131;28;20939;-81
2022/09/23 01:32:37;;;;;;;11.73;7.75;;;7.70;1.00;;;;;;5049879;28;20256;-80
2022/09/23 01:35:11;;;;;;;12.48;7.60;;;7.60;1.00;;;;;;5048299;28;20228;-81
2022/09/23 01:37:46;;;;;;;12.57;8.40;;;7.60;1.00;;;;;;5053108;28;20241;-81
2022/09/23 01:40:20;;;;;;;12.35;8.45;;;7.50;1.00;;;;;;5045770;28;20248;-81
2022/09/23 01:42:53;;;;;;;13.38;8.13;;;7.50;1.00;;;;;;5049143;28;20236;-81
2022/09/23 01:45:25;;;;;;;14.48;7.70;;;7.50;1.00;;;;;;5050045;28;20226;-81
2022/09/23 01:47:58;;;;;;;12.90;7.50;;;7.40;1.00;;;;;;5048944;28;20245;-81
2022/09/23 01:53:24;;;;;;;13.15;8.48;;;7.30;1.00;;;;;;5041365;28;20348;-81
2022/09/23 01:55:56;;;;;;;13.48;7.93;;;7.30;1.00;;;;;;5032445;28;20226;-82
2022/09/23 01:58:26;;;;;;;13.30;7.90;;;7.30;1.00;;;;;;5051659;28;20217;-81
2022/09/23 02:00:57;;;;;;;15.57;8.52;;;7.30;1.00;;;;;;5050465;28;20237;-82
2022/09/23 02:03:31;;;;;;;15.32;8.32;;;7.20;1.00;;;;;;5048831;28;20285;-82
2022/09/23 02:06:04;;;;;;;12.45;8.25;;;7.20;1.00;;;;;;5049508;28;20232;-82
2022/09/23 02:08:37;;;;;;;13.20;8.90;;;7.30;1.00;;;;;;5050125;28;20238;-80
2022/09/23 02:11:09;;;;;;;14.30;8.77;;;7.30;1.00;;;;;;5051657;28;20237;-80
2022/09/23 02:13:43;;;;;;;14.80;8.27;;;7.30;1.00;;;;;;5048357;28;20341;-81
2022/09/23 02:16:17;;;;;;;13.70;8.23;;;7.30;1.00;;;;;;5050945;28;20324;-79
2022/09/23 02:18:50;;;;;;;15.68;10.02;;;7.30;1.00;;;;;;5045482;28;20292;-80
2022/09/23 02:21:20;;;;;;;11.73;7.63;;;7.30;1.00;;;;;;5051125;28;20233;-80
2022/09/23 02:23:51;;;;;;;13.52;7.68;;;7.30;1.00;;;;;;5049920;28;20236;-79
2022/09/23 02:26:22;;;;;;;14.30;8.27;;;7.20;1.00;;;;;;5048774;28;20221;-81
2022/09/23 02:28:56;;;;;;;12.05;8.23;;;7.20;1.00;;;;;;5048159;28;20248;-79
2022/09/23 02:31:31;;;;;;;16.42;8.32;;;7.20;1.00;;;;;;5048794;28;20249;-80
2022/09/23 02:34:07;;;;;;;12.43;8.25;;;7.10;1.00;;;;;;5049859;28;20300;-79
2022/09/23 02:36:42;;;;;;;13.18;8.25;;;7.10;1.00;;;;;;5051216;28;20244;-80
2022/09/23 02:39:14;;;;;;;14.55;9.15;;;7.00;1.00;;;;;;5050315;28;20247;-80
2022/09/23 02:41:51;;;;;;;13.23;8.18;;;7.00;1.00;;;;;;5057071;28;20240;-81
2022/09/23 02:44:20;;;;;;;13.65;8.73;;;6.90;1.00;;;;;;5060398;28;20325;-80
2022/09/23 02:46:52;;;;;;;12.52;8.02;;;6.80;1.00;;;;;;5057582;28;20953;-80
2022/09/23 02:49:29;;;;;;;15.20;9.40;;;6.80;1.00;;;;;;5056959;28;20267;-81
2022/09/23 02:52:07;;;;;;;13.50;8.40;;;6.80;1.00;;;;;;5056262;28;20224;-80
2022/09/23 02:54:37;;;;;;;15.13;9.00;;;6.80;1.00;;;;;;5060549;28;20256;-80
2022/09/23 02:57:06;;;;;;;16.83;8.60;;;6.80;1.00;;;;;;5057700;28;20217;-80
2022/09/23 02:59:37;;;;;;;13.38;8.35;;;6.80;1.00;;;;;;5054644;28;20233;-80
2022/09/23 03:02:37;;;;;;;15.82;9.90;;;6.70;1.00;;;;;;5060111;28;20284;-82
2022/09/23 03:05:14;;;;;;;14.07;8.23;;;6.80;1.00;;;;;;5048898;28;20244;-80
2022/09/23 03:07:56;;;;;;;14.80;8.52;;;6.80;1.00;;;;;;5059891;28;20232;-81
2022/09/23 03:10:29;;;;;;;14.50;9.10;;;6.80;1.00;;;;;;5055948;28;20473;-82
2022/09/23 03:13:16;;;;;;;13.82;8.70;;;6.80;1.00;;;;;;5059767;28;20317;-78
2022/09/23 03:15:58;;;;;;;14.50;8.20;;;6.70;1.00;;;;;;5055825;28;20238;-78
2022/09/23 03:18:38;;;;;;;13.65;9.27;;;6.80;1.00;;;;;;5060872;28;20232;-80
2022/09/23 03:21:19;;;;;;;15.90;8.90;;;6.70;1.00;;;;;;5061514;28;20237;-81
2022/09/23 03:23:53;;;;;;;14.05;8.35;;;6.70;1.00;;;;;;5057818;28;20233;-80
2022/09/23 03:26:29;;;;;;;16.15;10.35;;;6.70;1.00;;;;;;5063306;28;20237;-80
2022/09/23 03:29:12;;;;;;;17.27;8.65;;;6.70;1.00;;;;;;5061579;28;20220;-80
2022/09/23 03:31:41;;;;;;;15.25;8.50;;;6.70;1.00;;;;;;5058746;28;20267;-81
2022/09/23 03:34:15;;;;;;;15.50;10.20;;;6.70;1.00;;;;;;5060993;28;20258;-81
2022/09/23 03:37:01;;;;;;;15.82;8.90;;;6.60;1.00;;;;;;5060882;28;20244;-81
2022/09/23 03:39:40;;;;;;;15.80;9.10;;;6.70;1.00;;;;;;5048280;28;20287;-81
2022/09/23 03:42:17;;;;;;;18.75;8.02;;;6.60;1.00;;;;;;5061319;28;20239;-81
2022/09/23 03:44:49;;;;;;;15.80;8.90;;;6.60;1.00;;;;;;5060160;28;20249;-81
2022/09/23 03:47:18;;;;;;;15.95;9.82;;;6.60;1.00;;;;;;5061700;28;20335;-81
2022/09/23 03:50:00;;;;;;;14.93;8.45;;;6.60;1.00;;;;;;5046370;28;20217;-81
2022/09/23 03:52:34;;;;;;;17.35;10.15;;;6.60;1.00;;;;;;5060978;28;20221;-79
2022/09/23 03:55:10;;;;;;;14.77;7.50;;;6.60;1.00;;;;;;5057997;28;20239;-81
2022/09/23 03:57:41;;;;;;;15.70;8.50;;;6.60;1.00;;;;;;5062241;28;20231;-79
2022/09/23 04:00:09;;;;;;;15.70;9.02;;;6.60;1.00;;;;;;5060304;28;20664;-80
2022/09/23 04:02:39;;;;;;;14.88;8.35;;;6.60;1.00;;;;;;5058284;28;20280;-79
2022/09/23 04:05:10;;;;;;;12.43;8.32;;;6.60;1.00;;;;;;5057242;28;20243;-80
2022/09/23 04:07:51;;;;;;;15.85;7.97;;;6.60;1.00;;;;;;5059643;28;20234;-78
2022/09/23 04:10:27;;;;;;;16.52;7.97;;;6.60;1.00;;;;;;5060190;28;20210;-81
2022/09/23 04:12:59;;;;;;;14.07;8.68;;;6.60;1.00;;;;;;5062724;28;20337;-81
2022/09/23 04:15:31;;;;;;;15.68;8.95;;;6.50;1.00;;;;;;5062478;28;20242;-79
2022/09/23 04:17:58;;;;;;;16.30;10.40;;;6.60;1.00;;;;;;5058919;28;20252;-81
2022/09/23 04:20:33;;;;;;;14.75;8.63;;;6.50;1.00;;;;;;5060702;28;20223;-80
2022/09/23 04:23:07;;;;;;;16.38;7.90;;;6.50;1.00;;;;;;5064546;28;20241;-81
2022/09/23 04:25:50;;;;;;;14.60;8.50;;;6.50;1.00;;;;;;5069476;28;20228;-80
2022/09/23 04:28:24;;;;;;;16.05;8.40;;;6.40;1.00;;;;;;5064605;28;20239;-80
2022/09/23 04:33:39;;;;;;;16.52;9.88;;;6.40;1.00;;;;;;5063765;28;20233;-82
2022/09/23 04:36:30;;;;;;;12.63;8.77;;;6.40;1.00;;;;;;5061437;28;20264;-79
2022/09/23 04:38:59;;;;;;;14.68;8.57;;;6.40;1.00;;;;;;5053934;28;20214;-81
2022/09/23 04:41:30;;;;;;;16.92;9.40;;;6.40;1.00;;;;;;5044641;28;20242;-81
2022/09/23 04:44:08;;;;;;;16.05;8.40;;;6.40;1.00;;;;;;5053166;28;20229;-84
2022/09/23 04:46:39;;;;;;;15.73;8.18;;;6.40;1.00;;;;;;5067355;28;20232;-85
2022/09/23 04:49:19;;;;;;;12.90;8.07;;;6.40;1.00;;;;;;5064563;28;20264;-84
2022/09/23 04:52:00;;;;;;;15.65;8.13;;;6.40;1.00;;;;;;5062206;28;20217;-83
2022/09/23 04:54:39;;;;;;;26.85;20.67;;;6.40;1.00;;;;;;5063283;28;20264;-83
2022/09/23 04:57:11;;;;;;;14.15;8.20;;;6.40;1.00;;;;;;5062558;28;20220;-79
2022/09/23 04:59:40;;;;;;;18.50;9.48;;;6.40;1.00;;;;;;5049860;28;20690;-79
2022/09/23 05:02:16;;;;;;;12.35;7.90;;;6.30;1.00;;;;;;5051889;28;20241;-80
2022/09/23 05:04:50;;;;;;;16.20;8.65;;;6.30;1.00;;;;;;5049870;28;20277;-80
2022/09/23 05:07:17;;;;;;;14.23;8.35;;;6.30;1.00;;;;;;5051507;28;20245;-80
2022/09/23 05:09:46;;;;;;;13.65;7.60;;;6.30;1.00;;;;;;5050941;28;20233;-80
2022/09/23 05:12:13;;;;;;;16.23;7.75;;;6.30;1.00;;;;;;5050046;28;20254;-80
2022/09/23 05:14:40;;;;;;;14.30;7.78;;;6.30;1.00;;;;;;5050189;28;20245;-80
2022/09/23 05:17:06;;;;;;;18.35;9.48;;;6.30;1.00;;;;;;5048945;28;20241;-79
2022/09/23 05:19:34;;;;;;;13.52;8.13;;;6.30;1.00;;;;;;5054670;28;20248;-81
2022/09/23 05:22:01;;;;;;;13.52;8.00;;;6.30;1.00;;;;;;5048876;28;20222;-80
2022/09/23 05:24:28;;;;;;;13.73;7.95;;;6.30;1.00;;;;;;5053869;28;20240;-81
2022/09/23 05:27:01;;;;;;;13.75;7.93;;;6.30;1.00;;;;;;5024863;28;20268;-81
2022/09/23 05:29:28;;;;;;;13.65;8.80;;;6.40;1.00;;;;;;5048412;28;20237;-80
2022/09/23 05:31:55;;;;;;;13.00;7.85;;;6.40;1.00;;;;;;5053589;28;20317;-80
2022/09/23 05:34:23;;;;;;;20.38;8.50;;;6.40;1.00;;;;;;5053467;28;20375;-81
2022/09/23 05:36:51;;;;;;;14.40;8.95;;;6.50;1.00;;;;;;5056063;28;20324;-80
2022/09/23 05:39:20;;;;;;;14.35;9.05;;;6.50;1.00;;;;;;5039286;28;20245;-81
2022/09/23 05:41:49;;;;;;;14.70;8.00;;;6.60;1.00;;;;;;5056468;28;20238;-81
2022/09/23 05:44:21;;;;;;;15.40;8.60;;;6.60;1.00;;;;;;5041141;28;20237;-80
2022/09/23 05:46:50;;;;;;;13.15;7.35;;;6.70;1.00;;;;;;5041187;28;20451;-81
2022/09/23 05:49:17;;;;;;;13.40;6.97;;;6.80;1.00;;;;;;5055887;28;20244;-81
2022/09/23 05:51:51;;;;;;;18.17;12.40;;;6.90;1.00;;;;;;5053427;28;20306;-80
2022/09/23 05:54:20;;;;;;;17.83;8.38;;;7.00;1.00;;;;;;5057567;28;20312;-81
2022/09/23 05:56:46;;;;;;;14.55;7.70;;;7.00;1.00;;;;;;5051774;28;20269;-80
2022/09/23 05:59:13;;;;;;;13.45;7.60;;;7.10;1.00;;;;;;5052305;28;20310;-80
2022/09/23 06:01:43;;;;;;;15.35;8.57;;;7.20;1.00;;;;;;5051562;28;20268;-84
2022/09/23 06:04:13;;;;;;;15.65;8.50;;;7.20;1.00;;;;;;5055898;28;20978;-83
2022/09/23 06:06:42;;;;;;;13.05;7.82;;;7.30;1.00;;;;;;5048282;28;20226;-81
2022/09/23 06:09:13;;;;;;;14.02;7.32;;;7.40;1.00;;;;;;5050943;28;20241;-82
2022/09/23 06:11:40;;;;;;;14.93;8.57;;;7.40;1.00;;;;;;5049854;28;20237;-81
2022/09/23 06:14:10;;;;;;;14.35;6.78;;;7.50;1.00;;;;;;5055233;28;20225;-81
2022/09/23 06:16:38;;;;;;;14.00;7.43;;;7.50;1.00;;;;;;5048875;28;20237;-79
2022/09/23 06:19:15;;;;;;;14.75;8.13;;;7.60;1.00;;;;;;5050679;28;21036;-80
2022/09/23 06:21:41;;;;;;;16.80;8.98;;;7.70;1.00;;;;;;5056031;28;20262;-81
2022/09/23 06:24:09;;;;;;;13.93;7.80;;;7.80;1.00;;;;;;5049944;28;21080;-81
2022/09/23 06:26:37;;;;;;;14.93;8.82;;;7.80;1.00;;;;;;5051185;28;20306;-80
2022/09/23 06:29:08;;;;;;;13.10;9.07;;;7.90;1.00;;;;;;5050516;28;20344;-79
2022/09/23 06:31:35;;;;;;;16.40;7.07;;;8.00;1.00;;;;;;5047061;28;20233;-78
2022/09/23 06:34:03;;;;;;;13.85;7.80;;;8.10;1.00;;;;;;5053601;28;20280;-79
2022/09/23 06:36:31;;;;;;;18.05;11.32;;;8.10;1.00;;;;;;5048503;28;20497;-80
2022/09/23 06:39:03;;;;;;;14.05;7.88;;;8.30;1.00;;;;;;5050188;28;20733;-81
2022/09/23 06:41:30;;;;;;;14.55;7.30;;;8.40;1.00;;;;;;5054747;28;20237;-81
2022/09/23 06:44:00;;;;;;;17.70;8.02;;;8.40;1.00;;;;;;5058306;28;20248;-81
2022/09/23 06:46:30;;;;;;;12.38;7.05;;;8.60;1.00;;;;;;5058279;28;20324;-80
2022/09/23 06:48:58;;;;;;;12.60;6.95;;;8.70;1.00;;;;;;5053644;28;20274;-81
2022/09/23 06:51:24;;;;;;;13.47;7.83;;;8.70;1.00;;;;;;5050930;28;20261;-80
2022/09/23 06:53:52;;;;;;;18.00;9.13;;;8.90;1.00;;;;;;5050259;28;20449;-80
2022/09/23 06:56:20;;;;;;;17.95;8.88;;;9.00;1.00;;;;;;5055191;28;20665;-81
2022/09/23 06:58:49;;;;;;;13.65;7.53;;;9.10;1.00;;;;;;5053814;28;20323;-81
2022/09/23 07:01:17;;;;;;;12.13;7.50;;;9.10;1.00;;;;;;5053213;28;20271;-83
2022/09/23 07:03:44;;;;;;;13.13;7.30;;;9.20;1.00;;;;;;5054701;28;20238;-81
2022/09/23 07:06:14;;;;;;;16.10;8.32;;;9.30;1.00;;;;;;5055974;28;20433;-80
2022/09/23 07:08:43;;;;;;;13.87;8.67;;;9.50;1.00;;;;;;5056722;28;20237;-80
2022/09/23 07:11:12;;;;;;;20.73;10.20;;;9.70;1.00;;;;;;5056434;28;20525;-80
2022/09/23 07:13:41;;;;;;;14.50;7.27;;;9.90;1.00;;;;;;5055377;28;20464;-80
2022/09/23 07:16:08;;;;;;;14.57;8.23;;;10.10;1.00;;;;;;5052584;28;20437;-80
2022/09/23 07:18:37;;;;;;;11.83;7.67;;;10.30;1.00;;;;;;5055577;28;20425;-80
2022/09/23 07:21:10;;;;;;;13.33;7.93;;;10.50;1.00;;;;;;5037269;28;20426;-80
2022/09/23 07:23:37;;;;;;;13.67;8.00;;;10.70;1.00;;;;;;5043378;28;20452;-80
2022/09/23 07:26:06;;;;;;;17.73;10.63;;;10.80;1.00;;;;;;5048931;28;20452;-80
2022/09/23 07:28:39;;;;;;;17.93;8.13;;;10.90;1.00;;;;;;5036752;28;20468;-81
2022/09/23 07:31:09;;;;;;;13.10;6.77;;;11.00;1.00;;;;;;5056450;28;20822;-83
2022/09/23 07:33:38;;;;;;;11.43;6.40;;;11.00;1.00;;;;;;5052504;28;20578;-81
2022/09/23 07:36:07;;;;;;;13.93;8.20;;;11.10;1.00;;;;;;5052531;28;20481;-80
2022/09/23 07:38:38;;;;;;;11.93;8.10;;;11.10;1.00;;;;;;5047678;28;20548;-81
2022/09/23 07:41:07;;;;;;;12.70;7.97;;;11.20;1.00;;;;;;5049531;28;20886;-81
2022/09/23 07:43:40;;;;;;;19.20;9.53;;;11.40;1.00;;;;;;5055499;28;20485;-80
2022/09/23 07:46:13;;;;;;;12.70;6.93;;;11.50;1.00;;;;;;5050110;28;21071;-80
2022/09/23 07:48:40;;;;;;;12.67;7.20;;;11.60;1.00;;;;;;5048780;28;20475;-76
2022/09/23 07:51:09;;;;;;;15.30;8.40;;;11.80;1.00;;;;;;5050824;28;20551;-76
2022/09/23 07:53:39;;;;;;;12.37;7.77;;;11.90;1.00;;;;;;5031966;28;20483;-77
2022/09/23 07:56:10;;;;;;;14.07;8.13;;;12.00;1.00;;;;;;5030424;28;20496;-78
2022/09/23 07:58:38;;;;;;;16.97;8.13;;;12.10;1.00;;;;;;5034378;28;20460;-78
2022/09/23 08:01:20;;;;;;;13.27;8.13;;;12.20;1.00;;;;;;5021001;28;20437;-78
2022/09/23 08:03:47;;;;;;;12.20;7.73;;;12.30;1.00;;;;;;5028791;28;20476;-77
2022/09/23 08:06:18;;;;;;;12.60;8.50;;;12.40;1.00;;;;;;5030228;28;20548;-79
2022/09/23 08:08:46;;;;;;;16.17;9.67;;;12.40;1.00;;;;;;5028740;28;20665;-78
2022/09/23 08:11:14;;;;;;;13.33;8.40;;;12.50;1.00;;;;;;5032732;28;20465;-79
2022/09/23 08:13:43;;;;;;;13.47;8.50;;;12.70;1.00;;;;;;5037123;28;20471;-79
2022/09/23 08:16:10;;;;;;;12.93;8.13;;;12.90;1.00;;;;;;5023823;28;20488;-79
2022/09/23 08:18:40;;;;;;;18.60;7.60;;;13.00;1.00;;;;;;5031846;28;20457;-80
2022/09/23 08:21:06;;;;;;;12.20;7.77;;;13.00;1.00;;;;;;5032271;28;20421;-78
2022/09/23 08:23:33;;;;;;;11.73;7.60;;;13.20;1.00;;;;;;5032198;28;20447;-77
2022/09/23 08:26:02;;;;;;;11.23;6.87;;;13.50;1.00;;;;;;5020605;28;20471;-78
2022/09/23 08:28:32;;;;;;;9.00;6.10;;;13.60;1.00;;;;;;5030443;28;20468;-81
2022/09/23 08:31:01;;;;;;;10.13;6.40;;;13.80;1.00;;;;;;5028147;28;20638;-79
2022/09/23 08:33:28;;;;;;;8.73;5.77;;;13.90;1.00;;;;;;5032264;28;21003;-80
2022/09/23 08:36:01;;;;;;;12.73;6.20;;;14.00;1.00;;;;;;5036505;28;20555;-79
2022/09/23 08:38:29;;;;;;;11.90;6.77;;;14.00;1.00;;;;;;5034962;28;21368;-78
2022/09/23 08:41:06;;;;;;;11.40;6.27;;;14.10;1.00;;;;;;5033280;28;20455;-81
2022/09/23 08:43:44;;;;;;;9.57;5.93;;;14.20;1.00;;;;;;5034603;28;20564;-77
2022/09/23 08:46:16;;;;;;;12.60;6.37;;;14.40;1.00;;;;;;5031437;28;20544;-78
2022/09/23 08:48:48;;;;;;;9.90;6.03;;;14.60;1.00;;;;;;5011375;28;20586;-81
2022/09/23 08:51:22;;;;;;;10.80;5.40;;;14.70;1.00;;;;;;5025312;28;21372;-77
2022/09/23 08:53:50;;;;;;;8.60;4.80;;;14.90;1.00;;;;;;5030545;28;20496;-78
2022/09/23 08:56:20;;;;;;;11.63;5.60;;;15.00;1.00;;;;;;5044525;28;20436;-76
2022/09/23 08:58:59;;;;;;;8.23;5.10;;;15.30;1.00;;;;;;5049700;28;20486;-78
2022/09/23 09:01:39;;;;;;;10.00;5.80;;;15.40;1.00;;;;;;5034286;28;20611;-78
2022/09/23 09:04:17;;;;;;;9.30;4.80;;;15.50;1.00;;;;;;5045144;28;21145;-77
2022/09/23 09:06:50;;;;;;;10.50;5.47;;;16.00;1.00;;;;;;5029281;28;20456;-78
2022/09/23 09:09:25;;;;;;;6.73;4.13;;;17.00;1.00;;;;;;5043497;28;20526;-79
2022/09/23 09:12:00;;;;;;;8.40;4.90;;;18.40;1.00;;;;;;5047228;28;20463;-78
2022/09/23 09:14:32;;;;;;;8.47;4.80;;;19.70;1.00;;;;;;5049421;28;20474;-80
2022/09/23 09:17:06;;;;;;;6.73;4.50;;;20.40;1.00;;;;;;5039607;28;20473;-78
2022/09/23 09:19:52;;;;;;;6.00;4.00;;;21.00;1.00;;;;;;5050649;28;21490;-78
2022/09/23 09:22:24;;;;;;;5.80;3.53;;;22.10;1.00;;;;;;5049612;28;20546;-78
2022/09/23 09:24:55;;;;;;;5.60;3.10;;;22.90;1.00;;;;;;5046276;28;20472;-80
2022/09/23 09:27:23;;;;;;;4.53;3.20;;;23.60;1.00;;;;;;5048109;28;20453;-79
2022/09/23 09:29:54;;;;;;;5.30;3.33;;;23.60;1.00;;;;;;5051293;28;20560;-77
2022/09/23 09:32:36;;;;;;;6.90;3.43;;;24.20;1.00;;;;;;5040329;28;20475;-79
2022/09/23 09:35:11;;;;;;;4.60;3.30;;;25.10;1.00;;;;;;5031270;28;20472;-79
2022/09/23 09:37:45;;;;;;;3.73;3.10;;;25.80;1.00;;;;;;5048049;28;21078;-79
2022/09/23 09:40:15;;;;;;;4.67;3.93;;;26.80;1.00;;;;;;5047083;28;20482;-79
2022/09/23 09:42:46;;;;;;;4.77;2.87;;;27.40;1.00;;;;;;5046290;28;20581;-76
2022/09/23 09:45:25;;;;;;;4.20;3.80;;;27.80;1.00;;;;;;5049520;28;20472;-78
2022/09/23 09:48:01;;;;;;;5.67;3.57;;;27.80;1.00;;;;;;5048956;28;20467;-80
2022/09/23 09:50:44;;;;;;;3.77;2.70;;;28.30;1.00;;;;;;5049502;28;20522;-76
2022/09/23 09:53:26;;;;;;;2.80;2.53;;;28.30;1.00;;;;;;5030525;28;22275;-78
2022/09/23 09:56:00;;;;;;;4.30;2.50;;;27.70;1.00;;;;;;5044587;28;20457;-78
2022/09/23 09:58:33;;;;;;;6.97;6.27;;;27.50;1.00;;;;;;5046116;28;20456;-76
2022/09/23 10:01:01;;;;;;;3.33;2.50;;;27.60;1.00;;;;;;5046614;28;20456;-77
2022/09/23 10:03:38;;;;;;;3.30;2.90;;;27.90;1.00;;;;;;5049277;28;20925;-78
2022/09/23 10:06:16;;;;;;;2.80;2.60;;;28.20;1.00;;;;;;5046211;28;20496;-78
2022/09/23 10:08:48;;;;;;;3.13;2.50;;;28.20;1.00;;;;;;5045666;28;21021;-78
2022/09/23 10:11:18;;;;;;;8.53;4.57;;;28.70;1.00;;;;;;5045685;28;20820;-79
2022/09/23 10:14:03;;;;;;;5.23;3.43;;;29.20;1.00;;;;;;5027188;28;20456;-77
2022/09/23 10:16:32;;;;;;;4.03;2.80;;;30.00;1.00;;;;;;5038263;28;20488;-77
2022/09/23 10:19:01;;;;;;;4.43;3.03;;;30.30;1.00;;;;;;5045865;28;20449;-78
2022/09/23 10:21:34;;;;;;;3.20;2.47;;;30.30;1.00;;;;;;5035881;28;20594;-77
2022/09/23 10:24:04;;;;;;;3.77;2.70;;;30.60;1.00;;;;;;5045934;28;20449;-78
2022/09/23 10:26:33;;;;;;;3.37;2.50;;;31.00;1.00;;;;;;5048389;28;20483;-77
2022/09/23 10:29:02;;;;;;;2.60;2.30;;;30.30;1.00;;;;;;5048681;28;20534;-77
2022/09/23 10:31:32;;;;;;;2.60;1.80;;;29.00;1.00;;;;;;5035174;28;21011;-76
2022/09/23 10:34:02;;;;;;;8.20;3.60;;;27.60;1.00;;;;;;5046083;28;20920;-78
2022/09/23 10:36:32;;;;;;;4.93;2.17;;;26.70;1.00;;;;;;5047408;28;20951;-77
2022/09/23 10:47:51;;;;;;;2.73;2.10;;;27.00;1.00;;;;;;5048862;28;20459;-77
2022/09/23 10:50:31;;;;;;;4.40;2.20;;;27.70;1.00;;;;;;5046453;28;20503;-76
2022/09/23 10:53:07;;;;;;;2.53;2.00;;;28.50;1.00;;;;;;5045387;28;21372;-78
2022/09/23 10:55:54;;;;;;;4.33;2.40;;;29.00;1.00;;;;;;5030543;28;20460;-76
2022/09/23 10:58:50;;;;;;;2.00;1.80;;;29.60;1.00;;;;;;5055992;28;21030;-79
2022/09/23 11:01:38;;;;;;;2.10;1.90;;;29.60;1.00;;;;;;5053977;28;20561;-81
2022/09/23 11:04:38;;;;;;;2.50;2.30;;;29.80;1.00;;;;;;5058630;28;20420;-77
2022/09/23 11:07:32;;;;;;;3.37;2.43;;;28.90;1.00;;;;;;5018469;28;20503;-77
2022/09/23 11:10:30;;;;;;;4.60;2.90;;;29.10;1.00;;;;;;5054237;28;20467;-81
2022/09/23 11:13:12;;;;;;;13.57;12.03;;;28.90;1.00;;;;;;5047221;28;20427;-82
2022/09/23 11:15:51;;;;;;;4.30;3.10;;;27.60;1.00;;;;;;5051433;28;21387;-82
2022/09/23 11:18:51;;;;;;;3.57;3.20;;;26.60;1.00;;;;;;5040370;28;20447;-80
2022/09/23 11:21:43;;;;;;;2.43;1.83;;;26.70;1.00;;;;;;5032944;28;20495;-80
2022/09/23 11:24:51;;;;;;;4.57;1.80;;;26.60;1.00;;;;;;5047436;28;20448;-80
2022/09/23 11:27:38;;;;;;;4.13;1.97;;;26.40;1.00;;;;;;5055659;28;20455;-80
2022/09/23 11:30:21;;;;;;;2.43;2.23;;;26.00;1.00;;;;;;5059984;28;20476;-80
2022/09/23 11:33:14;;;;;;;4.23;3.47;;;26.00;1.00;;;;;;5034889;28;20487;-80
2022/09/23 11:35:50;;;;;;;3.00;2.03;;;26.50;1.00;;;;;;5042088;28;20412;-80
2022/09/23 11:38:31;;;;;;;2.93;1.90;;;26.90;1.00;;;;;;5047534;28;20451;-78
2022/09/23 11:41:03;;;;;;;2.57;2.03;;;26.50;1.00;;;;;;5038512;28;20435;-77
2022/09/23 11:43:41;;;;;;;2.77;2.33;;;26.90;1.00;;;;;;5056826;28;20472;-80
2022/09/23 11:46:31;;;;;;;3.30;2.33;;;28.50;1.00;;;;;;5050594;28;20424;-77
2022/09/23 11:49:09;;;;;;;2.13;1.80;;;29.10;1.00;;;;;;5040699;28;20413;-82
2022/09/23 11:51:51;;;;;;;1.90;1.80;;;29.50;1.00;;;;;;5059365;28;20511;-76
2022/09/23 11:54:25;;;;;;;2.40;2.20;;;30.20;1.00;;;;;;5060079;28;20424;-81
2022/09/23 11:57:11;;;;;;;3.53;2.10;;;30.30;1.00;;;;;;5038299;28;20507;-81
2022/09/23 11:59:50;;;;;;;2.30;2.10;;;30.80;1.00;;;;;;5033789;28;20512;-81
2022/09/23 12:02:32;;;;;;;2.03;1.87;;;31.30;1.00;;;;;;5046152;28;20396;-77
2022/09/23 12:05:13;;;;;;;1.87;1.70;;;31.60;1.00;;;;;;5059552;28;20449;-78
2022/09/23 12:07:55;;;;;;;3.90;3.00;;;32.00;1.00;;;;;;5049260;28;20427;-81
2022/09/23 12:10:32;;;;;;;4.00;2.40;;;31.80;1.00;;;;;;5055444;28;20713;-81
2022/09/23 12:13:11;;;;;;;3.43;2.07;;;31.70;1.00;;;;;;5040171;28;20424;-79
2022/09/23 12:16:10;;;;;;;3.67;2.20;;;31.50;1.00;;;;;;5054431;28;20424;-79
2022/09/23 12:19:03;;;;;;;3.40;3.07;;;31.70;1.00;;;;;;5031427;28;20428;-80
2022/09/23 12:21:51;;;;;;;8.13;6.27;;;31.30;1.00;;;;;;5030050;28;20484;-79
2022/09/23 12:24:53;;;;;;;1.80;1.70;;;31.40;1.00;;;;;;5039090;28;20429;-81
2022/09/23 12:27:38;;;;;;;1.97;1.80;;;32.40;1.00;;;;;;5049361;28;20471;-79
2022/09/23 12:30:14;;;;;;;3.83;1.97;;;32.00;1.00;;;;;;5049298;28;20803;-82
2022/09/23 12:32:53;;;;;;;2.10;1.90;;;32.60;1.00;;;;;;5057402;28;20605;-81
2022/09/23 12:35:23;;;;;;;2.00;1.83;;;31.90;1.00;;;;;;5045911;28;20421;-80
2022/09/23 12:37:52;;;;;;;3.07;2.63;;;32.30;1.00;;;;;;5059647;28;20437;-81
2022/09/23 12:40:27;;;;;;;4.40;2.70;;;33.70;1.00;;;;;;5047430;28;20428;-81
2022/09/23 12:43:01;;;;;;;2.40;2.20;;;34.40;1.00;;;;;;5055901;28;20443;-79
2022/09/23 12:45:44;;;;;;;1.93;1.60;;;34.50;1.00;;;;;;5063251;28;20413;-83
2022/09/23 12:49:02;;;;;;;1.93;1.73;;;34.40;1.00;;;;;;5051993;28;20499;-81
2022/09/23 12:51:34;;;;;;;3.70;1.70;;;34.70;1.00;;;;;;5040784;28;20805;-81
2022/09/23 12:54:24;;;;;;;2.93;2.10;;;35.80;1.00;;;;;;5024246;28;20501;-82
2022/09/23 12:57:05;;;;;;;2.77;2.57;;;35.80;1.00;;;;;;5016638;28;20509;-79
2022/09/23 12:59:54;;;;;;;5.70;2.30;;;35.10;1.00;;;;;;5048067;28;20485;-78
2022/09/23 13:02:32;;;;;;;1.90;1.67;;;33.90;1.00;;;;;;5033695;28;20885;-81
2022/09/23 13:08:20;;;;;;;2.90;2.27;;;29.80;1.00;;;;;;5027011;28;20462;-81
2022/09/23 13:10:54;;;;;;;3.60;2.40;;;27.70;1.00;;;;;;5024476;28;20590;-80
2022/09/23 13:13:30;;;;;;;3.00;1.97;;;25.50;1.00;;;;;;5048528;28;20491;-82
2022/09/23 13:16:14;;;;;;;2.40;1.80;;;24.50;1.00;;;;;;5027717;28;20430;-81
2022/09/23 13:19:11;;;;;;;4.00;2.00;;;24.00;1.00;;;;;;5042913;28;21064;-81
2022/09/23 13:22:06;;;;;;;5.30;2.57;;;23.50;1.00;;;;;;5026664;28;20434;-78
2022/09/23 13:24:43;;;;;;;3.03;1.90;;;22.90;1.00;;;;;;5035508;28;20464;-82
2022/09/23 13:27:25;;;;;;;3.90;2.40;;;22.60;1.00;;;;;;5029362;28;20426;-81
2022/09/23 13:29:59;;;;;;;4.30;2.47;;;22.20;1.00;;;;;;5026622;28;20457;-82
2022/09/23 13:32:31;;;;;;;4.57;2.60;;;22.10;1.00;;;;;;5036823;28;20473;-81
2022/09/23 13:35:01;;;;;;;5.67;2.50;;;21.70;1.00;;;;;;5030239;28;21150;-83
2022/09/23 13:37:43;;;;;;;4.40;2.27;;;21.50;1.00;;;;;;5028319;28;20466;-81
2022/09/23 13:40:22;;;;;;;3.13;2.10;;;21.40;1.00;;;;;;5034418;28;20445;-82
2022/09/23 13:42:54;;;;;;;3.10;2.10;;;21.10;1.00;;;;;;5029570;28;20476;-82
2022/09/23 13:45:24;;;;;;;3.23;1.83;;;21.00;1.00;;;;;;5030518;28;20516;-84
2022/09/23 13:47:53;;;;;;;3.47;1.87;;;21.20;1.00;;;;;;5028234;28;20599;-83
2022/09/23 13:50:24;;;;;;;3.07;1.97;;;21.10;1.00;;;;;;5037382;28;20484;-82